sensor_id;sensor_type;location;lat;lon;timestamp;pressure;altitude;pressure_sealevel;temperature;humidity
15884;BME280;8040;50.254;10.960;2022-12-24T00:02:24;97294.19;;;11.35;84.79
15884;BME280;8040;50.254;10.960;2022-12-24T00:04:52;97294.31;;;11.39;84.60
15884;BME280;8040;50.254;10.960;2022-12-24T00:07:17;97293.06;;;11.36;84.99
15884;BME280;8040;50.254;10.960;2022-12-24T00:09:42;97294.81;;;11.32;84.11
15884;BME280;8040;50.254;10.960;2022-12-24T00:12:08;97297.25;;;11.25;83.56
15884;BME280;8040;50.254;10.960;2022-12-24T00:14:33;97313.38;;;11.22;82.74
15884;BME280;8040;50.254;10.960;2022-12-24T00:16:58;97314.34;;;11.26;82.35
15884;BME280;8040;50.254;10.960;2022-12-24T00:19:23;97315.13;;;11.26;81.28
15884;BME280;8040;50.254;10.960;2022-12-24T00:21:49;97314.81;;;11.28;80.75
15884;BME280;8040;50.254;10.960;2022-12-24T00:24:14;97307.97;;;11.22;80.54
15884;BME280;8040;50.254;10.960;2022-12-24T00:26:39;97314.53;;;11.21;80.60
15884;BME280;8040;50.254;10.960;2022-12-24T00:29:04;97316.09;;;11.22;80.48
15884;BME280;8040;50.254;10.960;2022-12-24T00:31:30;97324.09;;;11.18;80.24
15884;BME280;8040;50.254;10.960;2022-12-24T00:33:55;97319.94;;;11.21;79.68
15884;BME280;8040;50.254;10.960;2022-12-24T00:36:20;97315.31;;;11.21;78.71
15884;BME280;8040;50.254;10.960;2022-12-24T00:38:46;97317.53;;;11.28;78.71
15884;BME280;8040;50.254;10.960;2022-12-24T00:41:11;97325.16;;;11.34;77.84
15884;BME280;8040;50.254;10.960;2022-12-24T00:43:53;97328.81;;;11.38;78.54
15884;BME280;8040;50.254;10.960;2022-12-24T00:46:18;97334.44;;;11.33;77.62
15884;BME280;8040;50.254;10.960;2022-12-24T00:48:43;97334.75;;;11.32;77.37
15884;BME280;8040;50.254;10.960;2022-12-24T00:51:09;97334.63;;;11.28;77.02
15884;BME280;8040;50.254;10.960;2022-12-24T00:53:34;97325.34;;;11.29;76.67
15884;BME280;8040;50.254;10.960;2022-12-24T00:55:59;97332.50;;;11.34;76.21
15884;BME280;8040;50.254;10.960;2022-12-24T00:58:24;97339.06;;;11.33;76.03
15884;BME280;8040;50.254;10.960;2022-12-24T01:00:50;97349.25;;;11.36;75.38
15884;BME280;8040;50.254;10.960;2022-12-24T01:03:15;97353.38;;;11.42;75.17
15884;BME280;8040;50.254;10.960;2022-12-24T01:05:40;97347.03;;;11.38;74.87
15884;BME280;8040;50.254;10.960;2022-12-24T01:08:05;97364.72;;;11.44;75.00
15884;BME280;8040;50.254;10.960;2022-12-24T01:10:31;97379.22;;;11.48;74.24
15884;BME280;8040;50.254;10.960;2022-12-24T01:12:56;97376.72;;;11.43;74.94
15884;BME280;8040;50.254;10.960;2022-12-24T01:15:21;97381.47;;;11.46;74.22
15884;BME280;8040;50.254;10.960;2022-12-24T01:17:46;97386.91;;;11.46;73.62
15884;BME280;8040;50.254;10.960;2022-12-24T01:20:13;97390.09;;;11.48;73.77
15884;BME280;8040;50.254;10.960;2022-12-24T01:22:38;97380.84;;;11.49;73.33
15884;BME280;8040;50.254;10.960;2022-12-24T01:25:04;97384.03;;;11.51;73.90
15884;BME280;8040;50.254;10.960;2022-12-24T01:27:29;97383.59;;;11.40;73.62
15884;BME280;8040;50.254;10.960;2022-12-24T01:29:54;97403.72;;;11.39;72.59
15884;BME280;8040;50.254;10.960;2022-12-24T01:32:20;97398.44;;;11.43;73.27
15884;BME280;8040;50.254;10.960;2022-12-24T01:34:45;97405.28;;;11.49;72.91
15884;BME280;8040;50.254;10.960;2022-12-24T01:37:10;97401.91;;;11.52;72.69
15884;BME280;8040;50.254;10.960;2022-12-24T01:39:36;97409.59;;;11.50;72.22
15884;BME280;8040;50.254;10.960;2022-12-24T01:42:01;97411.81;;;11.48;72.19
15884;BME280;8040;50.254;10.960;2022-12-24T01:44:47;97415.38;;;11.40;72.52
15884;BME280;8040;50.254;10.960;2022-12-24T01:47:14;97429.72;;;11.49;71.94
15884;BME280;8040;50.254;10.960;2022-12-24T01:50:02;97422.69;;;11.48;71.89
15884;BME280;8040;50.254;10.960;2022-12-24T01:52:26;97428.09;;;11.48;71.11
15884;BME280;8040;50.254;10.960;2022-12-24T01:54:53;97442.03;;;11.46;71.60
15884;BME280;8040;50.254;10.960;2022-12-24T01:57:21;97448.25;;;11.47;71.00
15884;BME280;8040;50.254;10.960;2022-12-24T01:59:48;97455.25;;;11.48;71.04
15884;BME280;8040;50.254;10.960;2022-12-24T02:02:15;97451.13;;;11.42;71.40
15884;BME280;8040;50.254;10.960;2022-12-24T02:04:57;97464.53;;;11.47;70.04
15884;BME280;8040;50.254;10.960;2022-12-24T02:07:25;97465.50;;;11.51;69.96
15884;BME280;8040;50.254;10.960;2022-12-24T02:09:52;97471.75;;;11.51;70.14
15884;BME280;8040;50.254;10.960;2022-12-24T02:12:17;97466.44;;;11.55;69.53
15884;BME280;8040;50.254;10.960;2022-12-24T02:14:43;97467.41;;;11.59;69.82
15884;BME280;8040;50.254;10.960;2022-12-24T02:25:03;97480.50;;;11.57;69.91
15884;BME280;8040;50.254;10.960;2022-12-24T02:30:08;97478.63;;;11.49;69.39
15884;BME280;8040;50.254;10.960;2022-12-24T02:37:54;97486.41;;;11.50;69.49
15884;BME280;8040;50.254;10.960;2022-12-24T02:40:31;97493.63;;;11.55;69.36
15884;BME280;8040;50.254;10.960;2022-12-24T02:43:00;97495.19;;;11.56;68.71
15884;BME280;8040;50.254;10.960;2022-12-24T02:45:28;97494.25;;;11.52;68.55
15884;BME280;8040;50.254;10.960;2022-12-24T02:47:55;97490.56;;;11.56;68.69
15884;BME280;8040;50.254;10.960;2022-12-24T02:50:20;97494.41;;;11.55;68.14
15884;BME280;8040;50.254;10.960;2022-12-24T02:52:46;97481.63;;;11.47;68.32
15884;BME280;8040;50.254;10.960;2022-12-24T03:00:12;97508.00;;;11.47;67.90
15884;BME280;8040;50.254;10.960;2022-12-24T03:03:04;97509.44;;;11.44;68.13
15884;BME280;8040;50.254;10.960;2022-12-24T03:08:16;97514.72;;;11.41;67.77
15884;BME280;8040;50.254;10.960;2022-12-24T03:10:51;97512.50;;;11.43;68.17
15884;BME280;8040;50.254;10.960;2022-12-24T03:13:19;97524.44;;;11.42;68.56
15884;BME280;8040;50.254;10.960;2022-12-24T03:15:46;97529.56;;;11.43;69.39
15884;BME280;8040;50.254;10.960;2022-12-24T03:18:13;97537.41;;;11.36;68.63
15884;BME280;8040;50.254;10.960;2022-12-24T03:20:41;97549.38;;;11.35;68.60
15884;BME280;8040;50.254;10.960;2022-12-24T03:23:07;97544.44;;;11.29;69.37
15884;BME280;8040;50.254;10.960;2022-12-24T03:25:33;97548.09;;;11.24;69.36
15884;BME280;8040;50.254;10.960;2022-12-24T03:28:00;97556.09;;;11.21;69.57
15884;BME280;8040;50.254;10.960;2022-12-24T03:30:26;97565.06;;;11.21;69.63
15884;BME280;8040;50.254;10.960;2022-12-24T03:32:52;97559.28;;;11.14;69.94
15884;BME280;8040;50.254;10.960;2022-12-24T03:35:17;97559.28;;;11.14;70.00
15884;BME280;8040;50.254;10.960;2022-12-24T03:37:42;97565.38;;;11.20;70.60
15884;BME280;8040;50.254;10.960;2022-12-24T03:40:08;97574.47;;;11.15;70.26
15884;BME280;8040;50.254;10.960;2022-12-24T03:42:33;97583.25;;;11.21;70.79
15884;BME280;8040;50.254;10.960;2022-12-24T03:44:59;97581.34;;;11.21;70.71
15884;BME280;8040;50.254;10.960;2022-12-24T03:47:24;97583.41;;;11.16;70.55
15884;BME280;8040;50.254;10.960;2022-12-24T03:49:49;97587.38;;;11.10;70.56
15884;BME280;8040;50.254;10.960;2022-12-24T03:52:14;97594.59;;;11.06;70.67
15884;BME280;8040;50.254;10.960;2022-12-24T03:54:40;97592.63;;;10.98;70.77
15884;BME280;8040;50.254;10.960;2022-12-24T03:57:05;97593.91;;;10.92;70.69
15884;BME280;8040;50.254;10.960;2022-12-24T03:59:30;97605.44;;;10.97;71.86
15884;BME280;8040;50.254;10.960;2022-12-24T04:01:55;97598.22;;;10.93;71.18
15884;BME280;8040;50.254;10.960;2022-12-24T04:04:21;97603.16;;;10.91;71.26
15884;BME280;8040;50.254;10.960;2022-12-24T04:06:46;97597.41;;;10.84;71.46
15884;BME280;8040;50.254;10.960;2022-12-24T04:09:11;97599.16;;;10.88;71.55
15884;BME280;8040;50.254;10.960;2022-12-24T04:11:36;97604.28;;;10.90;71.65
15884;BME280;8040;50.254;10.960;2022-12-24T04:14:02;97597.28;;;10.89;71.97
15884;BME280;8040;50.254;10.960;2022-12-24T04:16:27;97607.16;;;10.93;71.83
15884;BME280;8040;50.254;10.960;2022-12-24T04:18:52;97620.91;;;10.97;71.71
15884;BME280;8040;50.254;10.960;2022-12-24T04:21:17;97615.00;;;11.03;71.96
15884;BME280;8040;50.254;10.960;2022-12-24T04:23:43;97614.38;;;11.06;72.08
15884;BME280;8040;50.254;10.960;2022-12-24T04:26:09;97617.88;;;11.07;72.79
15884;BME280;8040;50.254;10.960;2022-12-24T04:28:35;97613.88;;;11.04;71.91
15884;BME280;8040;50.254;10.960;2022-12-24T04:31:01;97627.16;;;11.06;71.58
15884;BME280;8040;50.254;10.960;2022-12-24T04:33:27;97619.47;;;10.99;71.32
15884;BME280;8040;50.254;10.960;2022-12-24T04:35:52;97618.03;;;11.02;71.77
15884;BME280;8040;50.254;10.960;2022-12-24T04:38:17;97625.53;;;11.05;71.54
15884;BME280;8040;50.254;10.960;2022-12-24T04:40:42;97625.53;;;11.05;71.42
15884;BME280;8040;50.254;10.960;2022-12-24T04:43:08;97630.94;;;11.05;71.89
15884;BME280;8040;50.254;10.960;2022-12-24T04:45:33;97638.63;;;11.03;71.26
15884;BME280;8040;50.254;10.960;2022-12-24T04:47:58;97637.34;;;11.00;70.71
15884;BME280;8040;50.254;10.960;2022-12-24T04:50:24;97636.88;;;10.98;70.78
15884;BME280;8040;50.254;10.960;2022-12-24T04:52:49;97642.59;;;10.97;70.90
15884;BME280;8040;50.254;10.960;2022-12-24T04:55:14;97637.31;;;10.92;70.65
15884;BME280;8040;50.254;10.960;2022-12-24T04:57:39;97645.31;;;10.97;70.79
15884;BME280;8040;50.254;10.960;2022-12-24T05:00:05;97646.13;;;10.97;70.65
15884;BME280;8040;50.254;10.960;2022-12-24T05:02:31;97649.75;;;10.93;70.22
15884;BME280;8040;50.254;10.960;2022-12-24T05:04:56;97650.88;;;10.92;70.17
15884;BME280;8040;50.254;10.960;2022-12-24T05:07:21;97654.56;;;10.96;70.33
15884;BME280;8040;50.254;10.960;2022-12-24T05:09:46;97659.66;;;10.89;70.13
15884;BME280;8040;50.254;10.960;2022-12-24T05:12:12;97665.75;;;10.94;70.28
15884;BME280;8040;50.254;10.960;2022-12-24T05:14:37;97658.56;;;10.98;70.61
15884;BME280;8040;50.254;10.960;2022-12-24T05:17:03;97664.44;;;10.92;70.74
15884;BME280;8040;50.254;10.960;2022-12-24T05:19:29;97669.91;;;11.00;70.49
15884;BME280;8040;50.254;10.960;2022-12-24T05:21:54;97669.91;;;11.00;70.20
15884;BME280;8040;50.254;10.960;2022-12-24T05:24:38;97672.63;;;11.00;70.10
15884;BME280;8040;50.254;10.960;2022-12-24T05:27:21;97672.44;;;10.97;70.06
15884;BME280;8040;50.254;10.960;2022-12-24T05:29:47;97682.69;;;11.00;70.48
15884;BME280;8040;50.254;10.960;2022-12-24T05:32:12;97690.84;;;11.00;70.45
15884;BME280;8040;50.254;10.960;2022-12-24T05:34:37;97698.31;;;11.03;70.47
15884;BME280;8040;50.254;10.960;2022-12-24T05:37:02;97683.00;;;10.98;70.58
15884;BME280;8040;50.254;10.960;2022-12-24T05:39:28;97699.91;;;10.95;70.70
15884;BME280;8040;50.254;10.960;2022-12-24T05:41:55;97698.00;;;10.96;70.33
15884;BME280;8040;50.254;10.960;2022-12-24T05:44:20;97701.19;;;10.98;70.51
15884;BME280;8040;50.254;10.960;2022-12-24T05:46:45;97715.25;;;11.00;70.64
15884;BME280;8040;50.254;10.960;2022-12-24T05:49:11;97716.84;;;11.01;70.70
15884;BME280;8040;50.254;10.960;2022-12-24T05:51:36;97716.38;;;11.07;70.70
15884;BME280;8040;50.254;10.960;2022-12-24T05:54:04;97722.31;;;11.09;70.44
15884;BME280;8040;50.254;10.960;2022-12-24T05:56:29;97728.50;;;11.10;70.58
15884;BME280;8040;50.254;10.960;2022-12-24T05:58:54;97731.88;;;11.07;70.22
15884;BME280;8040;50.254;10.960;2022-12-24T06:01:20;97733.63;;;11.11;70.29
15884;BME280;8040;50.254;10.960;2022-12-24T06:03:46;97739.06;;;11.11;70.15
15884;BME280;8040;50.254;10.960;2022-12-24T06:06:15;97726.44;;;11.07;70.30
15884;BME280;8040;50.254;10.960;2022-12-24T06:08:43;97725.31;;;11.08;70.54
15884;BME280;8040;50.254;10.960;2022-12-24T06:11:10;97726.09;;;11.00;70.49
15884;BME280;8040;50.254;10.960;2022-12-24T06:13:36;97738.56;;;11.01;71.15
15884;BME280;8040;50.254;10.960;2022-12-24T06:16:02;97741.41;;;10.96;71.36
15884;BME280;8040;50.254;10.960;2022-12-24T06:18:28;97744.44;;;10.94;71.56
15884;BME280;8040;50.254;10.960;2022-12-24T06:20:54;97740.44;;;10.92;71.29
15884;BME280;8040;50.254;10.960;2022-12-24T06:23:20;97747.91;;;10.86;71.50
15884;BME280;8040;50.254;10.960;2022-12-24T06:25:46;97748.06;;;10.81;71.37
15884;BME280;8040;50.254;10.960;2022-12-24T06:28:11;97746.16;;;10.82;71.91
15884;BME280;8040;50.254;10.960;2022-12-24T06:30:37;97745.47;;;10.76;72.03
15884;BME280;8040;50.254;10.960;2022-12-24T06:33:02;97744.00;;;10.70;72.20
15884;BME280;8040;50.254;10.960;2022-12-24T06:35:29;97745.28;;;10.73;72.20
15884;BME280;8040;50.254;10.960;2022-12-24T06:37:55;97744.81;;;10.71;72.99
15884;BME280;8040;50.254;10.960;2022-12-24T06:40:20;97742.66;;;10.59;72.67
15884;BME280;8040;50.254;10.960;2022-12-24T06:42:45;97746.50;;;10.58;72.79
15884;BME280;8040;50.254;10.960;2022-12-24T06:45:10;97754.19;;;10.65;73.30
15884;BME280;8040;50.254;10.960;2022-12-24T06:47:36;97753.09;;;10.66;73.66
15884;BME280;8040;50.254;10.960;2022-12-24T06:50:01;97758.69;;;10.69;73.16
15884;BME280;8040;50.254;10.960;2022-12-24T06:52:26;97748.94;;;10.68;72.93
15884;BME280;8040;50.254;10.960;2022-12-24T06:54:51;97750.38;;;10.66;73.20
15884;BME280;8040;50.254;10.960;2022-12-24T06:57:17;97754.38;;;10.68;73.27
15884;BME280;8040;50.254;10.960;2022-12-24T06:59:42;97768.72;;;10.69;73.32
15884;BME280;8040;50.254;10.960;2022-12-24T07:02:08;97765.28;;;10.77;73.58
15884;BME280;8040;50.254;10.960;2022-12-24T07:04:33;97772.91;;;10.75;73.66
15884;BME280;8040;50.254;10.960;2022-12-24T07:06:58;97776.13;;;10.77;73.61
15884;BME280;8040;50.254;10.960;2022-12-24T07:09:23;97785.84;;;10.78;73.91
15884;BME280;8040;50.254;10.960;2022-12-24T07:11:49;97781.72;;;10.80;74.08
15884;BME280;8040;50.254;10.960;2022-12-24T07:14:14;97785.41;;;10.84;74.36
15884;BME280;8040;50.254;10.960;2022-12-24T07:16:39;97785.72;;;10.83;74.20
15884;BME280;8040;50.254;10.960;2022-12-24T07:19:04;97785.41;;;10.84;74.38
15884;BME280;8040;50.254;10.960;2022-12-24T07:21:30;97787.50;;;10.87;74.62
15884;BME280;8040;50.254;10.960;2022-12-24T07:23:55;97795.00;;;10.90;74.26
15884;BME280;8040;50.254;10.960;2022-12-24T07:26:20;97799.41;;;10.78;74.66
15884;BME280;8040;50.254;10.960;2022-12-24T07:28:45;97791.63;;;10.85;74.53
15884;BME280;8040;50.254;10.960;2022-12-24T07:31:10;97796.94;;;10.90;74.93
15884;BME280;8040;50.254;10.960;2022-12-24T07:33:36;97804.59;;;10.88;74.45
15884;BME280;8040;50.254;10.960;2022-12-24T07:36:02;97804.75;;;10.91;74.91
15884;BME280;8040;50.254;10.960;2022-12-24T07:38:28;97810.97;;;10.92;74.81
15884;BME280;8040;50.254;10.960;2022-12-24T07:40:53;97808.13;;;10.97;74.69
15884;BME280;8040;50.254;10.960;2022-12-24T07:43:19;97810.53;;;10.98;74.59
15884;BME280;8040;50.254;10.960;2022-12-24T07:45:44;97804.59;;;10.96;74.58
15884;BME280;8040;50.254;10.960;2022-12-24T07:48:09;97805.53;;;10.92;74.00
15884;BME280;8040;50.254;10.960;2022-12-24T07:50:34;97814.81;;;10.91;74.79
15884;BME280;8040;50.254;10.960;2022-12-24T07:52:59;97813.81;;;10.87;74.77
15884;BME280;8040;50.254;10.960;2022-12-24T07:55:25;97808.22;;;10.83;74.26
15884;BME280;8040;50.254;10.960;2022-12-24T07:57:50;97817.28;;;10.79;74.57
15884;BME280;8040;50.254;10.960;2022-12-24T08:00:15;97835.84;;;10.85;74.47
15884;BME280;8040;50.254;10.960;2022-12-24T08:02:41;97846.19;;;10.83;74.64
15884;BME280;8040;50.254;10.960;2022-12-24T08:05:06;97833.09;;;10.77;74.48
15884;BME280;8040;50.254;10.960;2022-12-24T08:07:31;97830.72;;;10.84;74.79
15884;BME280;8040;50.254;10.960;2022-12-24T08:09:57;97846.88;;;10.89;74.94
15884;BME280;8040;50.254;10.960;2022-12-24T08:12:22;97844.66;;;10.91;74.54
15884;BME280;8040;50.254;10.960;2022-12-24T08:14:48;97857.59;;;10.94;74.71
15884;BME280;8040;50.254;10.960;2022-12-24T08:17:13;97857.22;;;10.87;74.59
15884;BME280;8040;50.254;10.960;2022-12-24T08:19:38;97857.59;;;10.94;75.06
15884;BME280;8040;50.254;10.960;2022-12-24T08:22:04;97863.69;;;10.99;74.79
15884;BME280;8040;50.254;10.960;2022-12-24T08:24:29;97870.06;;;10.95;74.61
15884;BME280;8040;50.254;10.960;2022-12-24T08:26:54;97864.34;;;11.05;74.57
15884;BME280;8040;50.254;10.960;2022-12-24T08:29:19;97867.44;;;11.12;74.91
15884;BME280;8040;50.254;10.960;2022-12-24T08:31:45;97866.34;;;11.13;74.41
15884;BME280;8040;50.254;10.960;2022-12-24T08:34:10;97879.78;;;11.18;74.81
15884;BME280;8040;50.254;10.960;2022-12-24T08:36:35;97875.31;;;11.22;74.78
15884;BME280;8040;50.254;10.960;2022-12-24T08:39:00;97875.13;;;11.18;74.37
15884;BME280;8040;50.254;10.960;2022-12-24T08:41:28;97876.91;;;11.23;74.37
15884;BME280;8040;50.254;10.960;2022-12-24T08:43:53;97876.25;;;11.17;74.30
15884;BME280;8040;50.254;10.960;2022-12-24T08:46:19;97869.69;;;11.18;74.47
15884;BME280;8040;50.254;10.960;2022-12-24T08:48:44;97878.03;;;11.22;74.42
15884;BME280;8040;50.254;10.960;2022-12-24T08:51:10;97887.75;;;11.23;74.63
15884;BME280;8040;50.254;10.960;2022-12-24T08:53:35;97886.16;;;11.22;74.41
15884;BME280;8040;50.254;10.960;2022-12-24T08:56:01;97889.88;;;11.26;74.34
15884;BME280;8040;50.254;10.960;2022-12-24T08:58:27;97892.28;;;11.27;74.74
15884;BME280;8040;50.254;10.960;2022-12-24T09:00:53;97914.28;;;11.26;74.03
15884;BME280;8040;50.254;10.960;2022-12-24T09:03:18;97906.16;;;11.26;74.09
15884;BME280;8040;50.254;10.960;2022-12-24T09:05:43;97918.13;;;11.25;74.13
15884;BME280;8040;50.254;10.960;2022-12-24T09:08:08;97919.22;;;11.24;74.30
15884;BME280;8040;50.254;10.960;2022-12-24T09:10:34;97935.50;;;11.24;74.06
15884;BME280;8040;50.254;10.960;2022-12-24T09:12:59;97932.53;;;11.34;73.94
15884;BME280;8040;50.254;10.960;2022-12-24T09:15:24;97932.72;;;11.37;74.34
15884;BME280;8040;50.254;10.960;2022-12-24T09:17:49;97942.47;;;11.38;73.99
15884;BME280;8040;50.254;10.960;2022-12-24T09:20:17;97938.50;;;11.44;74.03
15884;BME280;8040;50.254;10.960;2022-12-24T09:22:42;97952.75;;;11.50;74.53
15884;BME280;8040;50.254;10.960;2022-12-24T09:25:07;97953.19;;;11.43;73.95
15884;BME280;8040;50.254;10.960;2022-12-24T09:27:34;97963.63;;;11.50;73.85
15884;BME280;8040;50.254;10.960;2022-12-24T09:30:00;97968.88;;;11.46;73.89
15884;BME280;8040;50.254;10.960;2022-12-24T09:32:25;97969.44;;;11.35;74.04
15884;BME280;8040;50.254;10.960;2022-12-24T09:34:50;97970.72;;;11.37;73.95
15884;BME280;8040;50.254;10.960;2022-12-24T09:37:15;97972.16;;;11.35;74.24
15884;BME280;8040;50.254;10.960;2022-12-24T09:39:41;97974.69;;;11.31;74.40
15884;BME280;8040;50.254;10.960;2022-12-24T09:42:16;97964.34;;;11.33;74.86
15884;BME280;8040;50.254;10.960;2022-12-24T09:44:45;97959.38;;;11.35;74.80
15884;BME280;8040;50.254;10.960;2022-12-24T09:47:25;97967.88;;;11.42;75.09
15884;BME280;8040;50.254;10.960;2022-12-24T09:49:54;97971.78;;;11.50;74.61
15884;BME280;8040;50.254;10.960;2022-12-24T09:52:34;97977.03;;;11.46;74.63
15884;BME280;8040;50.254;10.960;2022-12-24T09:55:03;97975.44;;;11.45;74.29
15884;BME280;8040;50.254;10.960;2022-12-24T09:57:33;97981.34;;;11.47;74.42
15884;BME280;8040;50.254;10.960;2022-12-24T10:00:00;97983.75;;;11.49;74.36
15884;BME280;8040;50.254;10.960;2022-12-24T10:02:25;97985.00;;;11.43;74.15
15884;BME280;8040;50.254;10.960;2022-12-24T10:04:50;97991.41;;;11.47;74.54
15884;BME280;8040;50.254;10.960;2022-12-24T10:07:23;97984.59;;;11.58;74.92
15884;BME280;8040;50.254;10.960;2022-12-24T10:22:42;97995.09;;;11.73;76.86
15884;BME280;8040;50.254;10.960;2022-12-24T10:25:24;98010.41;;;11.69;76.99
15884;BME280;8040;50.254;10.960;2022-12-24T10:27:52;98007.00;;;11.63;77.60
15884;BME280;8040;50.254;10.960;2022-12-24T10:30:19;98010.84;;;11.62;77.63
15884;BME280;8040;50.254;10.960;2022-12-24T10:32:46;98007.44;;;11.57;78.39
15884;BME280;8040;50.254;10.960;2022-12-24T10:37:41;98018.91;;;11.54;79.60
15884;BME280;8040;50.254;10.960;2022-12-24T10:40:10;98015.72;;;11.52;79.89
15884;BME280;8040;50.254;10.960;2022-12-24T10:42:39;98018.59;;;11.55;80.37
15884;BME280;8040;50.254;10.960;2022-12-24T10:45:07;98019.53;;;11.51;81.04
15884;BME280;8040;50.254;10.960;2022-12-24T10:47:37;98022.22;;;11.42;80.75
15884;BME280;8040;50.254;10.960;2022-12-24T10:50:51;98025.22;;;11.41;80.86
15884;BME280;8040;50.254;10.960;2022-12-24T10:52:50;98021.22;;;11.38;80.84
15884;BME280;8040;50.254;10.960;2022-12-24T10:55:20;98028.69;;;11.33;81.54
15884;BME280;8040;50.254;10.960;2022-12-24T10:57:55;98030.28;;;11.34;81.68
15884;BME280;8040;50.254;10.960;2022-12-24T11:00:22;98033.50;;;11.36;81.82
15884;BME280;8040;50.254;10.960;2022-12-24T11:02:48;98036.72;;;11.38;82.36
15884;BME280;8040;50.254;10.960;2022-12-24T11:05:38;98037.50;;;11.38;81.87
15884;BME280;8040;50.254;10.960;2022-12-24T11:10:29;98037.91;;;11.45;82.39
15884;BME280;8040;50.254;10.960;2022-12-24T11:12:55;98038.06;;;11.49;82.50
15884;BME280;8040;50.254;10.960;2022-12-24T11:15:31;98043.50;;;11.49;82.53
15884;BME280;8040;50.254;10.960;2022-12-24T11:17:59;98036.03;;;11.54;82.69
15884;BME280;8040;50.254;10.960;2022-12-24T11:20:28;98040.25;;;11.60;82.63
15884;BME280;8040;50.254;10.960;2022-12-24T11:22:54;98041.84;;;11.61;82.80
15884;BME280;8040;50.254;10.960;2022-12-24T11:27:46;98042.66;;;11.62;82.35
15884;BME280;8040;50.254;10.960;2022-12-24T11:32:40;98040.16;;;11.52;81.75
15884;BME280;8040;50.254;10.960;2022-12-24T11:35:06;98042.88;;;11.52;82.22
15884;BME280;8040;50.254;10.960;2022-12-24T11:37:34;98051.69;;;11.57;82.15
15884;BME280;8040;50.254;10.960;2022-12-24T11:40:00;98050.41;;;11.55;81.70
15884;BME280;8040;50.254;10.960;2022-12-24T11:42:33;98052.31;;;11.54;81.52
15884;BME280;8040;50.254;10.960;2022-12-24T11:45:01;98052.03;;;11.56;82.23
15884;BME280;8040;50.254;10.960;2022-12-24T11:47:31;98048.97;;;11.57;81.97
15884;BME280;8040;50.254;10.960;2022-12-24T11:50:10;98047.06;;;11.58;82.40
15884;BME280;8040;50.254;10.960;2022-12-24T11:52:41;98045.84;;;11.64;82.23
15884;BME280;8040;50.254;10.960;2022-12-24T11:58:04;98037.59;;;11.69;82.36
15884;BME280;8040;50.254;10.960;2022-12-24T12:00:35;98039.34;;;11.73;81.78
15884;BME280;8040;50.254;10.960;2022-12-24T12:03:00;98041.94;;;11.78;81.83
15884;BME280;8040;50.254;10.960;2022-12-24T12:05:28;98038.94;;;11.80;82.04
15884;BME280;8040;50.254;10.960;2022-12-24T12:07:57;98047.56;;;11.82;82.25
15884;BME280;8040;50.254;10.960;2022-12-24T12:10:27;98044.03;;;11.81;82.21
15884;BME280;8040;50.254;10.960;2022-12-24T12:13:12;98041.31;;;11.81;82.38
15884;BME280;8040;50.254;10.960;2022-12-24T12:15:42;98030.13;;;11.83;82.69
15884;BME280;8040;50.254;10.960;2022-12-24T12:18:26;98042.16;;;11.90;82.66
15884;BME280;8040;50.254;10.960;2022-12-24T12:20:59;98042.66;;;11.92;82.48
15884;BME280;8040;50.254;10.960;2022-12-24T12:23:33;98048.25;;;11.96;82.20
15884;BME280;8040;50.254;10.960;2022-12-24T12:28:31;98062.53;;;12.01;82.06
15884;BME280;8040;50.254;10.960;2022-12-24T12:31:01;98061.41;;;12.02;82.27
15884;BME280;8040;50.254;10.960;2022-12-24T12:33:32;98055.28;;;11.97;82.21
15884;BME280;8040;50.254;10.960;2022-12-24T12:36:02;98060.94;;;12.00;82.33
15884;BME280;8040;50.254;10.960;2022-12-24T12:38:31;98059.00;;;12.01;82.10
15884;BME280;8040;50.254;10.960;2022-12-24T12:46:15;98055.50;;;12.00;81.45
15884;BME280;8040;50.254;10.960;2022-12-24T12:51:31;98052.69;;;12.22;81.54
15884;BME280;8040;50.254;10.960;2022-12-24T12:54:16;98055.44;;;12.31;81.45
15884;BME280;8040;50.254;10.960;2022-12-24T12:56:46;98066.31;;;12.31;80.95
15884;BME280;8040;50.254;10.960;2022-12-24T12:59:14;98065.38;;;12.35;81.27
15884;BME280;8040;50.254;10.960;2022-12-24T13:01:44;98067.31;;;12.35;80.92
15884;BME280;8040;50.254;10.960;2022-12-24T13:16:52;98078.66;;;12.37;76.10
15884;BME280;8040;50.254;10.960;2022-12-24T13:22:14;98069.09;;;12.48;75.46
15884;BME280;8040;50.254;10.960;2022-12-24T13:24:44;98068.97;;;12.53;74.93
15884;BME280;8040;50.254;10.960;2022-12-24T13:27:18;98064.63;;;12.60;74.04
15884;BME280;8040;50.254;10.960;2022-12-24T13:29:52;98059.72;;;12.62;73.74
15884;BME280;8040;50.254;10.960;2022-12-24T13:34:46;98064.34;;;12.62;73.64
15884;BME280;8040;50.254;10.960;2022-12-24T13:37:19;98063.34;;;12.58;73.55
15884;BME280;8040;50.254;10.960;2022-12-24T13:48:39;98080.00;;;12.48;73.81
15884;BME280;8040;50.254;10.960;2022-12-24T13:50:40;98078.88;;;12.49;73.52
15884;BME280;8040;50.254;10.960;2022-12-24T13:55:58;98086.59;;;12.55;73.15
15884;BME280;8040;50.254;10.960;2022-12-24T13:58:25;98089.56;;;12.45;72.64
15884;BME280;8040;50.254;10.960;2022-12-24T14:03:18;98091.66;;;12.40;72.45
15884;BME280;8040;50.254;10.960;2022-12-24T14:05:46;98092.75;;;12.39;72.53
15884;BME280;8040;50.254;10.960;2022-12-24T14:08:35;98109.75;;;12.44;72.45
15884;BME280;8040;50.254;10.960;2022-12-24T14:11:06;98101.88;;;12.43;72.26
15884;BME280;8040;50.254;10.960;2022-12-24T14:16:20;98109.84;;;12.31;72.32
15884;BME280;8040;50.254;10.960;2022-12-24T14:18:57;98114.56;;;12.17;72.69
15884;BME280;8040;50.254;10.960;2022-12-24T14:24:18;98114.34;;;12.05;73.09
15884;BME280;8040;50.254;10.960;2022-12-24T14:26:46;98130.13;;;11.94;73.48
15884;BME280;8040;50.254;10.960;2022-12-24T14:29:15;98131.56;;;11.92;74.17
15884;BME280;8040;50.254;10.960;2022-12-24T14:31:51;98132.63;;;11.82;74.08
15884;BME280;8040;50.254;10.960;2022-12-24T14:34:17;98137.53;;;11.80;73.98
15884;BME280;8040;50.254;10.960;2022-12-24T14:36:43;98144.53;;;11.73;74.26
15884;BME280;8040;50.254;10.960;2022-12-24T14:39:09;98141.13;;;11.67;74.64